Time;durP1;ratioP1;P1;durP2;ratioP2;P2;SDS_P1;SDS_P2;PMS_P1;PMS_P2;Temp;Humidity;BMP_temperature;BMP_pressure;BME280_temperature;BME280_humidity;BME280_pressure;Samples;Min_cycle;Max_cycle;Signal;HPM_P1;HPM_P2
2021/11/02 00:01:31;;;;;;;17.27;12.32;;;;;;;;;;4351341;32;20070;-62
2021/11/02 00:03:57;;;;;;;17.02;12.75;;;;;;;;;;4377358;32;20240;-63
2021/11/02 00:06:24;;;;;;;18.73;12.93;;;;;;;;;;4351351;32;20088;-64
2021/11/02 00:08:51;;;;;;;18.60;12.40;;;;;;;;;;4339244;32;20163;-63
2021/11/02 00:11:17;;;;;;;15.43;12.15;;;;;;;;;;4363750;32;20085;-63
2021/11/02 00:13:47;;;;;;;18.20;13.38;;;;;;;;;;4364230;32;20099;-63
2021/11/02 00:16:17;;;;;;;17.73;12.40;;;;;;;;;;4339215;32;20081;-64
2021/11/02 00:18:57;;;;;;;17.75;12.23;;;;;;;;;;4364187;32;20073;-63
2021/11/02 00:21:24;;;;;;;17.95;12.18;;;;;;;;;;4353421;32;20186;-63
2021/11/02 00:23:57;;;;;;;16.80;11.90;;;;;;;;;;4364764;32;20093;-62
2021/11/02 00:26:24;;;;;;;18.77;13.62;;;;;;;;;;4364805;32;20165;-63
2021/11/02 00:28:51;;;;;;;18.83;12.60;;;;;;;;;;4338635;32;20078;-63
2021/11/02 00:31:17;;;;;;;20.27;13.27;;;;;;;;;;4363369;32;20514;-63
2021/11/02 00:33:44;;;;;;;18.05;13.45;;;;;;;;;;4362949;32;20150;-63
2021/11/02 00:36:11;;;;;;;21.10;14.15;;;;;;;;;;4362938;32;20531;-64
2021/11/02 00:38:38;;;;;;;19.42;13.20;;;;;;;;;;4326007;32;20083;-64
2021/11/02 00:41:04;;;;;;;18.08;13.45;;;;;;;;;;4351282;32;20151;-62
2021/11/02 00:43:31;;;;;;;18.02;13.98;;;;;;;;;;4350457;32;20160;-63
2021/11/02 00:45:58;;;;;;;18.98;13.25;;;;;;;;;;4350669;32;20082;-63
2021/11/02 00:48:26;;;;;;;20.00;13.32;;;;;;;;;;4350862;32;20162;-62
2021/11/02 00:50:52;;;;;;;19.10;13.48;;;;;;;;;;4363394;32;20070;-63
2021/11/02 00:53:19;;;;;;;18.90;13.80;;;;;;;;;;4338085;32;20081;-63
2021/11/02 00:55:46;;;;;;;18.98;13.95;;;;;;;;;;4338728;32;20435;-64
2021/11/02 00:58:13;;;;;;;18.70;13.88;;;;;;;;;;4338466;32;20079;-63
2021/11/02 01:00:40;;;;;;;18.12;13.48;;;;;;;;;;4350851;32;20175;-64
2021/11/02 01:03:07;;;;;;;19.92;14.07;;;;;;;;;;4350282;32;20605;-63
2021/11/02 01:05:34;;;;;;;18.27;13.60;;;;;;;;;;4350873;32;20055;-64
2021/11/02 01:08:00;;;;;;;20.17;13.68;;;;;;;;;;4356417;32;20074;-63
2021/11/02 01:10:27;;;;;;;20.90;13.13;;;;;;;;;;4358444;32;20073;-63
2021/11/02 01:12:54;;;;;;;18.05;13.68;;;;;;;;;;4358060;32;20077;-64
2021/11/02 01:15:28;;;;;;;18.30;13.65;;;;;;;;;;4363512;32;20472;-64
2021/11/02 01:17:55;;;;;;;17.95;13.82;;;;;;;;;;4350635;32;20086;-63
2021/11/02 01:20:22;;;;;;;20.77;14.87;;;;;;;;;;4350605;32;20082;-63
2021/11/02 01:22:48;;;;;;;20.30;14.40;;;;;;;;;;4338349;32;20440;-63
2021/11/02 01:25:16;;;;;;;21.05;14.35;;;;;;;;;;4326120;32;20152;-63
2021/11/02 01:27:42;;;;;;;22.85;14.82;;;;;;;;;;4350250;32;20512;-62
2021/11/02 01:30:10;;;;;;;22.40;15.27;;;;;;;;;;4350362;32;20166;-64
2021/11/02 01:32:37;;;;;;;23.92;15.95;;;;;;;;;;4337933;32;20076;-64
2021/11/02 01:35:04;;;;;;;20.62;15.77;;;;;;;;;;4325870;32;20161;-63
2021/11/02 01:37:31;;;;;;;23.35;16.42;;;;;;;;;;4325529;32;20166;-63
2021/11/02 01:39:59;;;;;;;22.52;15.30;;;;;;;;;;4338540;32;20198;-61
2021/11/02 01:42:27;;;;;;;23.10;15.20;;;;;;;;;;4338233;32;20077;-63
2021/11/02 01:44:53;;;;;;;27.13;15.15;;;;;;;;;;4347719;32;20163;-63
2021/11/02 01:47:20;;;;;;;21.80;15.23;;;;;;;;;;4359885;32;20106;-63
2021/11/02 01:49:48;;;;;;;23.87;14.87;;;;;;;;;;4322675;32;20090;-63
2021/11/02 01:52:15;;;;;;;21.55;14.85;;;;;;;;;;4335424;32;20067;-63
2021/11/02 01:54:42;;;;;;;22.98;15.75;;;;;;;;;;4335266;32;20086;-63
2021/11/02 01:57:08;;;;;;;19.30;14.93;;;;;;;;;;4359874;32;20538;-64
2021/11/02 01:59:37;;;;;;;19.80;14.60;;;;;;;;;;4334986;32;20164;-63
2021/11/02 02:02:07;;;;;;;21.95;14.75;;;;;;;;;;4360032;32;20507;-61
2021/11/02 02:04:57;;;;;;;23.73;15.77;;;;;;;;;;4335788;32;20086;-63
2021/11/02 02:07:23;;;;;;;21.15;13.93;;;;;;;;;;4364415;32;20074;-63
2021/11/02 02:09:57;;;;;;;22.65;14.85;;;;;;;;;;4350697;32;20079;-63
2021/11/02 02:12:55;;;;;;;23.20;15.45;;;;;;;;;;4338469;32;20162;-63
2021/11/02 02:15:27;;;;;;;23.02;14.73;;;;;;;;;;4364298;32;20073;-63
2021/11/02 02:18:14;;;;;;;19.37;14.25;;;;;;;;;;4350424;32;20079;-62
2021/11/02 02:20:59;;;;;;;25.05;15.15;;;;;;;;;;4350246;32;20496;-63
2021/11/02 02:24:06;;;;;;;23.23;15.15;;;;;;;;;;3857505;37;20058;-63
2021/11/02 02:27:10;;;;;;;22.33;15.63;;;;;;;;;;4420103;32;20057;-64
2021/11/02 02:29:40;;;;;;;21.65;14.85;;;;;;;;;;4371899;32;20074;-63
2021/11/02 02:32:07;;;;;;;21.10;14.20;;;;;;;;;;4407639;32;20089;-62
2021/11/02 02:34:34;;;;;;;21.83;14.25;;;;;;;;;;4396841;32;20074;-62
2021/11/02 02:37:00;;;;;;;21.92;14.70;;;;;;;;;;4390622;32;20076;-64
2021/11/02 02:39:27;;;;;;;23.00;15.40;;;;;;;;;;4403023;32;20085;-63
2021/11/02 02:41:53;;;;;;;19.48;14.60;;;;;;;;;;4390336;32;20068;-62
2021/11/02 02:44:20;;;;;;;23.10;15.15;;;;;;;;;;4390737;32;20088;-62
2021/11/02 02:46:47;;;;;;;20.62;14.27;;;;;;;;;;4378203;32;20154;-62
2021/11/02 02:49:14;;;;;;;20.95;15.02;;;;;;;;;;4403123;32;20069;-61
2021/11/02 02:51:43;;;;;;;21.98;15.50;;;;;;;;;;4408662;32;20088;-64
2021/11/02 02:54:14;;;;;;;24.23;15.48;;;;;;;;;;4391623;32;20068;-63
2021/11/02 02:56:42;;;;;;;21.83;15.77;;;;;;;;;;4390079;32;20583;-64
2021/11/02 02:59:09;;;;;;;23.52;14.93;;;;;;;;;;4402977;32;20119;-61
2021/11/02 03:01:36;;;;;;;23.25;15.40;;;;;;;;;;4377688;32;20089;-63
2021/11/02 03:04:05;;;;;;;22.50;15.85;;;;;;;;;;4390158;32;20074;-61
2021/11/02 03:06:37;;;;;;;20.85;15.57;;;;;;;;;;4377770;32;20070;-63
2021/11/02 03:09:09;;;;;;;23.17;15.85;;;;;;;;;;4402460;32;20153;-62
2021/11/02 03:11:36;;;;;;;21.95;16.27;;;;;;;;;;4390005;32;20492;-61
2021/11/02 03:14:08;;;;;;;23.48;14.70;;;;;;;;;;4390127;32;20607;-63
2021/11/02 03:19:41;;;;;;;22.42;14.87;;;;;;;;;;4402656;32;20069;-62
2021/11/02 03:56:04;;;;;;;19.37;14.63;;;;;;;;;;4381230;32;20085;-63
2021/11/02 03:59:31;;;;;;;27.35;15.02;;;;;;;;;;4381096;32;20128;-63
2021/11/02 04:31:38;;;;;;;24.40;15.00;;;;;;;;;;4391493;32;20081;-62
2021/11/02 05:46:41;;;;;;;26.75;15.48;;;;;;;;;;4389459;32;20086;-63
2021/11/02 05:48:35;;;;;;;21.80;12.60;;;;;;;;;;4379561;32;20470;-62
2021/11/02 06:09:25;;;;;;;27.52;15.07;;;;;;;;;;4377830;32;20491;-66
2021/11/02 06:29:07;;;;;;;19.37;10.52;;;;;;;;;;4389481;32;20074;-62
2021/11/02 06:31:37;;;;;;;20.23;11.63;;;;;;;;;;4377623;32;20093;-63
2021/11/02 06:35:12;;;;;;;22.65;11.43;;;;;;;;;;4378238;32;20085;-64
2021/11/02 07:18:55;;;;;;;15.45;9.60;;;;;;;;;;4405451;32;20096;-62
2021/11/02 07:21:29;;;;;;;15.55;8.05;;;;;;;;;;4381382;32;20070;-62
2021/11/02 07:24:04;;;;;;;19.27;9.95;;;;;;;;;;4417931;32;20161;-62
2021/11/02 08:45:41;;;;;;;7.05;4.50;;;;;;;;;;4373292;32;20151;-62
2021/11/02 08:48:03;;;;;;;8.23;4.93;;;;;;;;;;4365553;32;20081;-65
2021/11/02 08:50:36;;;;;;;7.32;4.85;;;;;;;;;;4388614;32;20078;-64
2021/11/02 08:53:05;;;;;;;8.27;5.15;;;;;;;;;;4373218;32;20117;-67
2021/11/02 08:55:32;;;;;;;10.15;5.40;;;;;;;;;;4374217;32;20068;-63
2021/11/02 08:57:59;;;;;;;8.68;5.70;;;;;;;;;;4386257;32;20186;-64
2021/11/02 09:00:25;;;;;;;9.25;6.10;;;;;;;;;;4375754;32;20126;-64
2021/11/02 09:02:54;;;;;;;8.05;5.47;;;;;;;;;;4364007;32;20081;-65
2021/11/02 09:05:30;;;;;;;10.10;6.32;;;;;;;;;;4387226;32;20089;-65
2021/11/02 09:07:58;;;;;;;9.02;6.72;;;;;;;;;;4360548;32;20444;-63
2021/11/02 09:10:25;;;;;;;9.90;5.57;;;;;;;;;;4372022;32;20109;-63
2021/11/02 09:12:54;;;;;;;9.93;5.65;;;;;;;;;;4360214;32;20520;-63
2021/11/02 09:15:29;;;;;;;8.18;4.60;;;;;;;;;;4377018;32;20198;-64
2021/11/02 09:17:56;;;;;;;13.50;5.70;;;;;;;;;;4357954;32;20080;-65
2021/11/02 09:20:24;;;;;;;10.43;6.55;;;;;;;;;;4372542;32;20527;-64
2021/11/02 09:22:51;;;;;;;10.13;6.37;;;;;;;;;;4383066;32;20121;-64
2021/11/02 09:25:17;;;;;;;10.48;5.75;;;;;;;;;;4373671;32;20081;-63
2021/11/02 09:27:45;;;;;;;8.93;5.32;;;;;;;;;;4369220;32;20097;-62
2021/11/02 09:30:12;;;;;;;11.07;6.22;;;;;;;;;;4375376;32;20493;-64
2021/11/02 09:32:41;;;;;;;10.57;6.15;;;;;;;;;;4367282;32;20101;-62
2021/11/02 09:35:12;;;;;;;10.07;5.07;;;;;;;;;;4362690;32;20080;-65
2021/11/02 09:37:43;;;;;;;9.00;5.53;;;;;;;;;;4376680;32;20081;-63
2021/11/02 09:42:56;;;;;;;9.70;6.13;;;;;;;;;;3832476;37;20773;-62
2021/11/02 09:45:33;;;;;;;8.85;6.50;;;;;;;;;;4397809;32;20531;-63
2021/11/02 09:48:25;;;;;;;10.85;5.18;;;;;;;;;;4390910;32;20070;-61
2021/11/02 09:51:20;;;;;;;8.02;4.55;;;;;;;;;;4391807;32;20440;-61
2021/11/02 09:54:02;;;;;;;9.85;5.15;;;;;;;;;;4388023;32;20199;-62
2021/11/02 09:57:00;;;;;;;8.30;5.87;;;;;;;;;;4379087;32;20065;-61
2021/11/02 09:59:49;;;;;;;11.25;5.47;;;;;;;;;;4381501;32;20500;-62
2021/11/02 10:02:20;;;;;;;12.07;4.97;;;;;;;;;;4386415;32;20066;-61
2021/11/02 10:05:14;;;;;;;8.18;4.93;;;;;;;;;;4388963;32;20210;-65
2021/11/02 10:08:00;;;;;;;9.63;5.50;;;;;;;;;;4396075;32;20064;-63
2021/11/02 10:10:46;;;;;;;7.33;5.00;;;;;;;;;;4372657;32;20484;-61
2021/11/02 10:13:22;;;;;;;9.68;6.45;;;;;;;;;;4395312;32;20358;-62
2021/11/02 10:15:50;;;;;;;;;;;;;;;;;;4392645;32;20089;-60
2021/11/02 10:18:25;;;;;;;7.60;5.00;;;;;;;;;;4386962;32;20033;-61
2021/11/02 10:20:57;;;;;;;10.10;5.80;;;;;;;;;;4382648;32;20095;-62
2021/11/02 10:23:58;;;;;;;8.30;4.80;;;;;;;;;;4382590;32;20576;-61
2021/11/02 10:26:58;;;;;;;10.93;5.57;;;;;;;;;;4395991;32;20066;-61
2021/11/02 10:29:54;;;;;;;7.90;5.12;;;;;;;;;;4385700;32;20078;-67
2021/11/02 10:32:23;;;;;;;8.35;4.93;;;;;;;;;;4390074;32;20194;-65
2021/11/02 10:35:14;;;;;;;8.32;4.80;;;;;;;;;;4377772;32;20105;-63
2021/11/02 10:37:56;;;;;;;8.85;5.18;;;;;;;;;;4382608;32;20514;-67
2021/11/02 10:40:25;;;;;;;8.13;4.85;;;;;;;;;;4383256;32;20128;-64
2021/11/02 10:43:13;;;;;;;8.07;4.50;;;;;;;;;;4392464;32;20132;-65
2021/11/02 10:45:48;;;;;;;7.53;4.35;;;;;;;;;;4389112;32;20081;-63
2021/11/02 10:48:14;;;;;;;7.70;4.28;;;;;;;;;;4372765;32;20065;-63
2021/11/02 10:50:46;;;;;;;7.87;4.30;;;;;;;;;;4369055;32;20102;-63
2021/11/02 10:53:21;;;;;;;7.65;4.25;;;;;;;;;;4388706;32;20093;-63
2021/11/02 10:56:06;;;;;;;6.80;3.97;;;;;;;;;;4386717;32;20059;-67
2021/11/02 10:58:36;;;;;;;9.77;4.30;;;;;;;;;;4369047;32;20098;-67
2021/11/02 11:01:07;;;;;;;9.50;4.03;;;;;;;;;;4384529;32;20608;-65
2021/11/02 11:03:35;;;;;;;8.32;4.03;;;;;;;;;;4346237;32;20519;-63
2021/11/02 11:06:03;;;;;;;8.82;4.53;;;;;;;;;;4384951;32;20234;-66
2021/11/02 11:08:35;;;;;;;9.77;4.95;;;;;;;;;;4376255;32;20771;-65
2021/11/02 11:11:04;;;;;;;10.93;4.62;;;;;;;;;;4385359;32;20082;-65
2021/11/02 11:13:31;;;;;;;8.52;4.50;;;;;;;;;;4376645;32;20170;-65
2021/11/02 11:16:17;;;;;;;8.43;4.20;;;;;;;;;;4365784;32;20554;-68
2021/11/02 11:18:50;;;;;;;9.75;4.65;;;;;;;;;;4391822;32;20170;-64
2021/11/02 11:21:17;;;;;;;7.95;4.37;;;;;;;;;;4378625;32;20081;-64
2021/11/02 11:23:44;;;;;;;9.70;4.75;;;;;;;;;;4366642;32;20120;-64
2021/11/02 11:26:11;;;;;;;6.75;4.32;;;;;;;;;;4378123;32;20062;-64
2021/11/02 11:28:38;;;;;;;7.82;5.60;;;;;;;;;;4363052;32;20074;-65
2021/11/02 11:31:05;;;;;;;8.73;5.40;;;;;;;;;;4348079;32;20094;-66
2021/11/02 11:33:32;;;;;;;9.20;4.70;;;;;;;;;;4373549;32;20153;-69
2021/11/02 11:36:06;;;;;;;7.78;4.85;;;;;;;;;;4370628;32;20504;-69
2021/11/02 11:38:40;;;;;;;13.00;6.30;;;;;;;;;;4368490;32;20101;-67
2021/11/02 11:41:08;;;;;;;12.32;5.65;;;;;;;;;;4383476;32;20171;-66
2021/11/02 11:43:35;;;;;;;7.85;4.80;;;;;;;;;;4369586;32;20158;-64
2021/11/02 11:46:03;;;;;;;7.47;4.82;;;;;;;;;;4360084;32;20077;-64
2021/11/02 11:48:30;;;;;;;8.48;5.22;;;;;;;;;;4360004;32;20086;-65
2021/11/02 11:51:00;;;;;;;11.23;5.50;;;;;;;;;;4372420;32;20162;-64
2021/11/02 11:53:27;;;;;;;9.95;4.97;;;;;;;;;;4365001;32;20078;-67
2021/11/02 11:56:13;;;;;;;11.00;6.10;;;;;;;;;;4375284;32;20066;-62
2021/11/02 11:58:54;;;;;;;15.68;5.85;;;;;;;;;;4370674;32;20512;-62
2021/11/02 12:01:21;;;;;;;6.68;4.50;;;;;;;;;;4382860;32;20105;-62
2021/11/02 12:04:13;;;;;;;8.32;4.68;;;;;;;;;;4372498;32;20093;-62
2021/11/02 12:07:01;;;;;;;10.70;5.55;;;;;;;;;;4368691;32;20085;-64
2021/11/02 12:09:27;;;;;;;9.88;5.25;;;;;;;;;;4358086;32;20076;-65
2021/11/02 12:12:00;;;;;;;10.95;5.68;;;;;;;;;;4358756;32;20159;-62
2021/11/02 12:14:26;;;;;;;9.98;6.05;;;;;;;;;;4374837;32;20086;-64
2021/11/02 12:16:58;;;;;;;9.80;5.82;;;;;;;;;;4355405;32;20463;-67
2021/11/02 12:19:34;;;;;;;9.60;5.95;;;;;;;;;;4370761;32;20071;-65
2021/11/02 12:22:03;;;;;;;10.18;6.03;;;;;;;;;;4368344;32;20110;-64
2021/11/02 12:24:34;;;;;;;9.93;5.65;;;;;;;;;;4382017;32;20287;-63
2021/11/02 12:27:42;;;;;;;10.40;5.50;;;;;;;;;;4381075;32;20206;-63
2021/11/02 12:30:13;;;;;;;8.63;5.60;;;;;;;;;;4353720;32;20131;-64
2021/11/02 12:32:50;;;;;;;9.38;5.68;;;;;;;;;;4358043;32;20089;-63
2021/11/02 12:35:52;;;;;;;12.32;6.45;;;;;;;;;;4373422;32;20106;-69
2021/11/02 12:38:34;;;;;;;8.68;5.55;;;;;;;;;;4384436;32;20113;-66
2021/11/02 12:41:02;;;;;;;10.82;6.65;;;;;;;;;;4370064;32;20073;-62
2021/11/02 12:43:31;;;;;;;12.55;5.90;;;;;;;;;;4358380;32;20085;-63
2021/11/02 12:46:00;;;;;;;10.05;6.12;;;;;;;;;;4345853;32;20539;-63
2021/11/02 12:48:27;;;;;;;12.70;6.18;;;;;;;;;;4389342;32;20146;-63
2021/11/02 12:50:54;;;;;;;10.75;6.53;;;;;;;;;;4357649;32;20062;-61
2021/11/02 12:53:21;;;;;;;11.05;6.37;;;;;;;;;;4346073;32;20082;-60
2021/11/02 12:55:47;;;;;;;12.65;6.75;;;;;;;;;;4368430;32;20193;-62
2021/11/02 12:58:16;;;;;;;11.60;6.45;;;;;;;;;;4371133;32;20127;-63
2021/11/02 13:00:58;;;;;;;11.93;6.70;;;;;;;;;;4354689;32;20464;-62
2021/11/02 13:03:27;;;;;;;11.55;6.95;;;;;;;;;;4377131;32;20077;-63
2021/11/02 13:06:02;;;;;;;11.90;7.20;;;;;;;;;;4368102;32;20085;-64
2021/11/02 13:08:35;;;;;;;11.93;6.55;;;;;;;;;;4373940;32;20112;-63
2021/11/02 13:11:19;;;;;;;12.63;6.97;;;;;;;;;;4386516;32;20452;-62
2021/11/02 13:13:58;;;;;;;12.45;5.87;;;;;;;;;;4377929;32;20110;-66
2021/11/02 13:16:26;;;;;;;11.00;6.32;;;;;;;;;;4383745;32;20055;-67
2021/11/02 13:18:52;;;;;;;12.60;5.80;;;;;;;;;;4369635;32;20073;-70
2021/11/02 13:21:28;;;;;;;13.38;7.18;;;;;;;;;;4367714;32;20070;-63
2021/11/02 13:24:07;;;;;;;13.57;5.97;;;;;;;;;;4359855;32;20069;-63
2021/11/02 13:26:35;;;;;;;12.88;6.22;;;;;;;;;;4360683;32;20082;-64
2021/11/02 13:29:12;;;;;;;11.63;6.03;;;;;;;;;;4371196;32;20104;-65
2021/11/02 13:31:39;;;;;;;15.63;7.22;;;;;;;;;;4359057;32;20206;-63
2021/11/02 13:34:08;;;;;;;14.87;6.40;;;;;;;;;;4359032;32;20347;-63
2021/11/02 13:36:34;;;;;;;15.63;6.90;;;;;;;;;;4370932;32;20117;-65
2021/11/02 13:39:03;;;;;;;8.38;5.22;;;;;;;;;;4345896;32;20525;-64
2021/11/02 13:41:31;;;;;;;10.48;6.47;;;;;;;;;;4358038;32;20073;-64
2021/11/02 13:44:04;;;;;;;11.23;7.25;;;;;;;;;;4358485;32;20189;-70
2021/11/02 13:46:51;;;;;;;10.30;6.22;;;;;;;;;;4372543;32;20497;-64
2021/11/02 13:49:18;;;;;;;13.07;7.30;;;;;;;;;;4373417;32;20081;-69
2021/11/02 13:51:45;;;;;;;13.45;6.75;;;;;;;;;;4371807;32;20572;-63
2021/11/02 13:54:12;;;;;;;14.55;6.95;;;;;;;;;;4356635;32;20086;-65
2021/11/02 13:56:41;;;;;;;12.45;6.82;;;;;;;;;;4358050;32;20074;-67
2021/11/02 13:59:09;;;;;;;11.65;6.47;;;;;;;;;;4359040;32;20085;-68
2021/11/02 14:01:55;;;;;;;10.73;6.30;;;;;;;;;;4367058;32;20171;-65
2021/11/02 14:04:23;;;;;;;12.65;6.30;;;;;;;;;;4379967;32;20077;-64
2021/11/02 14:06:54;;;;;;;11.95;6.10;;;;;;;;;;4372004;32;20081;-70
2021/11/02 14:09:25;;;;;;;13.20;8.02;;;;;;;;;;4357597;32;20077;-65
2021/11/02 14:11:51;;;;;;;11.48;5.60;;;;;;;;;;4371188;32;20077;-63
2021/11/02 14:14:32;;;;;;;13.32;6.80;;;;;;;;;;4358252;32;20117;-64
2021/11/02 14:17:34;;;;;;;14.40;7.40;;;;;;;;;;4378475;32;20117;-69
2021/11/02 14:20:01;;;;;;;12.82;7.68;;;;;;;;;;4338270;33;20187;-64
2021/11/02 14:22:48;;;;;;;13.40;7.62;;;;;;;;;;4357682;32;20464;-63
2021/11/02 14:25:22;;;;;;;15.65;8.02;;;;;;;;;;4359799;32;20097;-67
2021/11/02 14:27:50;;;;;;;13.32;7.90;;;;;;;;;;4357762;32;20085;-63
2021/11/02 14:30:24;;;;;;;13.77;7.43;;;;;;;;;;4352461;32;20097;-63
2021/11/02 14:32:52;;;;;;;12.48;7.55;;;;;;;;;;4370688;32;20105;-64
2021/11/02 14:35:47;;;;;;;12.02;7.03;;;;;;;;;;4354620;32;20070;-63
2021/11/02 14:38:27;;;;;;;13.07;7.07;;;;;;;;;;4377106;32;20538;-64
2021/11/02 14:40:55;;;;;;;13.45;7.37;;;;;;;;;;4376636;32;20171;-63
2021/11/02 14:43:32;;;;;;;15.00;7.50;;;;;;;;;;4376570;32;20531;-63
2021/11/02 14:46:00;;;;;;;13.27;6.97;;;;;;;;;;4376975;32;20166;-63
2021/11/02 14:48:27;;;;;;;13.55;7.53;;;;;;;;;;4377777;32;20580;-63
2021/11/02 14:51:04;;;;;;;12.32;6.80;;;;;;;;;;4377126;32;20500;-63
2021/11/02 14:53:38;;;;;;;15.13;7.80;;;;;;;;;;4364356;32;20163;-63
2021/11/02 14:56:14;;;;;;;11.95;6.93;;;;;;;;;;4374689;32;20066;-64
2021/11/02 14:58:45;;;;;;;;;;;;;;;;;;4382050;32;20526;-66
2021/11/02 15:01:29;;;;;;;13.55;8.38;;;;;;;;;;4376299;32;20372;-64
2021/11/02 15:04:04;;;;;;;15.98;8.98;;;;;;;;;;4351577;32;20079;-69
2021/11/02 15:06:30;;;;;;;16.42;8.55;;;;;;;;;;4377867;32;20086;-64
2021/11/02 15:08:58;;;;;;;16.58;9.38;;;;;;;;;;4378027;32;20121;-64
2021/11/02 15:11:24;;;;;;;13.20;7.62;;;;;;;;;;4366659;32;20072;-63
2021/11/02 15:13:58;;;;;;;14.45;8.95;;;;;;;;;;4392081;32;20100;-63
2021/11/02 15:16:25;;;;;;;13.45;8.48;;;;;;;;;;4392725;32;20153;-63
2021/11/02 15:19:05;;;;;;;15.70;7.72;;;;;;;;;;4381381;32;20082;-64
2021/11/02 15:21:40;;;;;;;13.88;7.70;;;;;;;;;;4392445;32;20133;-64
2021/11/02 15:24:18;;;;;;;12.90;7.30;;;;;;;;;;4392383;32;20082;-64
2021/11/02 15:26:49;;;;;;;14.60;8.45;;;;;;;;;;4392270;32;20150;-64
2021/11/02 15:29:17;;;;;;;13.77;7.95;;;;;;;;;;4391646;32;20074;-65
2021/11/02 15:32:00;;;;;;;14.57;7.85;;;;;;;;;;4365916;32;20475;-66
2021/11/02 15:34:44;;;;;;;17.52;9.13;;;;;;;;;;4391720;32;20113;-64
2021/11/02 15:37:16;;;;;;;13.18;7.45;;;;;;;;;;4380217;32;20095;-65
2021/11/02 15:39:43;;;;;;;14.30;7.37;;;;;;;;;;4391188;32;20074;-63
2021/11/02 15:42:30;;;;;;;14.05;8.13;;;;;;;;;;4378391;32;20078;-63
2021/11/02 15:44:59;;;;;;;12.15;7.32;;;;;;;;;;4380184;32;20062;-65
2021/11/02 15:47:27;;;;;;;11.45;7.15;;;;;;;;;;4379206;32;20087;-65
2021/11/02 15:50:04;;;;;;;13.85;7.57;;;;;;;;;;4391462;32;20452;-65
2021/11/02 15:52:32;;;;;;;12.52;7.15;;;;;;;;;;4391182;32;20105;-64
2021/11/02 15:55:06;;;;;;;18.90;9.18;;;;;;;;;;4378494;32;20542;-66
2021/11/02 15:57:47;;;;;;;13.05;7.97;;;;;;;;;;4391529;32;20077;-65
2021/11/02 16:00:17;;;;;;;13.60;6.80;;;;;;;;;;4378992;32;20178;-64
2021/11/02 16:02:46;;;;;;;12.52;7.03;;;;;;;;;;4390887;32;20089;-64
2021/11/02 16:05:14;;;;;;;11.50;6.30;;;;;;;;;;4379397;32;20093;-63
2021/11/02 16:07:41;;;;;;;10.50;5.97;;;;;;;;;;4378358;32;20092;-64
2021/11/02 16:10:08;;;;;;;12.20;5.72;;;;;;;;;;4391034;32;20451;-64
2021/11/02 16:12:40;;;;;;;10.73;6.20;;;;;;;;;;4366153;32;20085;-64
2021/11/02 16:15:06;;;;;;;12.07;6.00;;;;;;;;;;4379033;32;20068;-64
2021/11/02 16:17:43;;;;;;;10.98;6.12;;;;;;;;;;4390798;32;20082;-64
2021/11/02 16:20:22;;;;;;;8.30;4.87;;;;;;;;;;4378353;32;20101;-64
2021/11/02 16:22:57;;;;;;;8.93;5.12;;;;;;;;;;4378247;32;20512;-64
2021/11/02 16:25:23;;;;;;;8.00;5.28;;;;;;;;;;4391036;32;20080;-64
2021/11/02 16:27:58;;;;;;;9.40;5.47;;;;;;;;;;4390683;32;20180;-65
2021/11/02 16:30:49;;;;;;;11.38;6.15;;;;;;;;;;4390771;32;20072;-65
2021/11/02 16:33:16;;;;;;;10.85;6.03;;;;;;;;;;4380841;32;20085;-65
2021/11/02 16:35:45;;;;;;;11.10;5.75;;;;;;;;;;4390798;32;20092;-65
2021/11/02 16:38:34;;;;;;;9.98;6.03;;;;;;;;;;4390851;32;20090;-65
2021/11/02 16:41:02;;;;;;;11.07;6.40;;;;;;;;;;4390038;32;20101;-65
2021/11/02 16:43:46;;;;;;;8.43;4.80;;;;;;;;;;4390655;32;20102;-65
2021/11/02 16:46:27;;;;;;;11.82;6.47;;;;;;;;;;4391071;32;20077;-66
2021/11/02 16:49:06;;;;;;;13.77;6.18;;;;;;;;;;4390723;32;20068;-65
2021/11/02 16:51:52;;;;;;;11.77;6.12;;;;;;;;;;4377815;32;20078;-64
2021/11/02 16:54:26;;;;;;;11.70;5.87;;;;;;;;;;4377710;32;20085;-64
2021/11/02 16:56:58;;;;;;;9.68;5.90;;;;;;;;;;4390545;32;20070;-65
2021/11/02 16:59:40;;;;;;;11.10;6.25;;;;;;;;;;4378162;32;20082;-65
2021/11/02 17:02:24;;;;;;;11.20;6.37;;;;;;;;;;4390714;32;20162;-64
2021/11/02 17:05:08;;;;;;;9.93;6.25;;;;;;;;;;4378956;32;20078;-64
2021/11/02 17:07:37;;;;;;;11.70;7.03;;;;;;;;;;4365389;32;20073;-65
2021/11/02 17:10:16;;;;;;;11.12;5.85;;;;;;;;;;4389984;32;20176;-66
2021/11/02 17:12:47;;;;;;;9.88;5.93;;;;;;;;;;4390429;32;20081;-64
2021/11/02 17:15:29;;;;;;;10.95;5.97;;;;;;;;;;4377879;32;20073;-66
2021/11/02 17:17:56;;;;;;;12.15;6.20;;;;;;;;;;4377892;32;20516;-65
2021/11/02 17:20:24;;;;;;;11.50;6.57;;;;;;;;;;4377534;32;20463;-64
2021/11/02 17:22:51;;;;;;;11.00;6.15;;;;;;;;;;4390335;32;20097;-64
2021/11/02 17:25:18;;;;;;;11.00;5.78;;;;;;;;;;4377739;32;20145;-64
2021/11/02 17:27:45;;;;;;;11.70;5.82;;;;;;;;;;4377688;32;20116;-65
2021/11/02 17:30:32;;;;;;;13.45;6.45;;;;;;;;;;4390047;32;20179;-66
2021/11/02 17:33:00;;;;;;;9.65;5.50;;;;;;;;;;4390504;32;20088;-65
2021/11/02 17:35:27;;;;;;;10.73;5.43;;;;;;;;;;4390546;32;20081;-64
2021/11/02 17:37:55;;;;;;;10.95;6.07;;;;;;;;;;4377302;32;20077;-64
2021/11/02 17:40:23;;;;;;;14.02;6.18;;;;;;;;;;4365030;32;21132;-65
2021/11/02 17:42:53;;;;;;;14.93;6.25;;;;;;;;;;4380394;32;20062;-67
2021/11/02 17:45:20;;;;;;;11.85;6.62;;;;;;;;;;4385330;32;20062;-65
2021/11/02 17:47:49;;;;;;;11.43;6.47;;;;;;;;;;4381085;32;20074;-65
2021/11/02 17:50:16;;;;;;;9.10;5.85;;;;;;;;;;4392360;32;20089;-66
2021/11/02 17:52:43;;;;;;;9.60;6.30;;;;;;;;;;4378733;32;20173;-65
2021/11/02 17:55:11;;;;;;;10.02;5.87;;;;;;;;;;4390629;32;20088;-65
2021/11/02 17:57:56;;;;;;;12.10;5.78;;;;;;;;;;4377699;32;20090;-65
2021/11/02 18:00:24;;;;;;;10.40;5.93;;;;;;;;;;4377978;32;20128;-64
2021/11/02 18:02:52;;;;;;;10.90;6.30;;;;;;;;;;4391064;32;20124;-64
2021/11/02 18:05:19;;;;;;;12.07;6.28;;;;;;;;;;4380545;32;20085;-64
2021/11/02 18:07:47;;;;;;;10.55;6.20;;;;;;;;;;4394635;32;20070;-65
2021/11/02 18:10:14;;;;;;;9.88;5.95;;;;;;;;;;4392790;32;20070;-66
2021/11/02 18:12:43;;;;;;;13.23;6.43;;;;;;;;;;4380427;32;20073;-64
2021/11/02 18:15:10;;;;;;;12.95;6.40;;;;;;;;;;4380029;32;20078;-64
2021/11/02 18:17:55;;;;;;;10.68;6.18;;;;;;;;;;4380450;32;20092;-66
2021/11/02 18:20:23;;;;;;;10.70;6.72;;;;;;;;;;4367879;32;20093;-65
2021/11/02 18:22:54;;;;;;;11.45;6.28;;;;;;;;;;4380925;32;20082;-66
2021/11/02 18:25:21;;;;;;;12.32;6.28;;;;;;;;;;4393671;32;20090;-65
2021/11/02 18:27:52;;;;;;;11.88;6.50;;;;;;;;;;4392979;32;20158;-66
2021/11/02 18:30:19;;;;;;;12.20;7.18;;;;;;;;;;4392892;32;20150;-64
2021/11/02 18:32:46;;;;;;;12.02;6.70;;;;;;;;;;4367599;32;20093;-66
2021/11/02 18:35:14;;;;;;;11.63;6.68;;;;;;;;;;4392697;32;20092;-65
2021/11/02 18:37:42;;;;;;;13.00;7.10;;;;;;;;;;4392184;32;20067;-64
2021/11/02 18:40:12;;;;;;;13.02;6.80;;;;;;;;;;4392440;32;20097;-65
2021/11/02 18:42:43;;;;;;;12.27;7.10;;;;;;;;;;4392475;32;20086;-64
2021/11/02 18:45:10;;;;;;;12.70;7.07;;;;;;;;;;4392187;32;20170;-64
2021/11/02 18:47:37;;;;;;;11.12;6.43;;;;;;;;;;4379911;32;20069;-66
2021/11/02 18:50:05;;;;;;;11.73;6.45;;;;;;;;;;4379973;32;20141;-66
2021/11/02 18:52:32;;;;;;;12.43;6.65;;;;;;;;;;4392222;32;20070;-64
2021/11/02 18:54:58;;;;;;;11.75;6.72;;;;;;;;;;4392776;32;20165;-65
2021/11/02 18:57:25;;;;;;;11.57;6.55;;;;;;;;;;4392015;32;20081;-65
2021/11/02 18:59:51;;;;;;;13.40;6.68;;;;;;;;;;4367199;32;20601;-65
2021/11/02 19:02:18;;;;;;;12.65;6.40;;;;;;;;;;4379293;32;20467;-65
2021/11/02 19:04:46;;;;;;;10.75;6.57;;;;;;;;;;4392148;32;20195;-65
2021/11/02 19:07:12;;;;;;;12.85;7.35;;;;;;;;;;4391942;32;20452;-66
2021/11/02 19:09:39;;;;;;;11.05;6.65;;;;;;;;;;4394142;32;20451;-66
2021/11/02 19:12:06;;;;;;;12.48;6.75;;;;;;;;;;4392155;32;20078;-64
2021/11/02 19:14:32;;;;;;;9.40;6.25;;;;;;;;;;4379435;32;20070;-66
2021/11/02 19:16:59;;;;;;;10.70;6.70;;;;;;;;;;4380261;32;20069;-64
2021/11/02 19:19:25;;;;;;;11.73;6.25;;;;;;;;;;4392568;32;20161;-65
2021/11/02 19:21:52;;;;;;;13.73;6.95;;;;;;;;;;4392595;32;20089;-64
2021/11/02 19:24:19;;;;;;;9.60;5.90;;;;;;;;;;4369664;32;20112;-65
2021/11/02 19:26:46;;;;;;;11.63;6.62;;;;;;;;;;4382328;32;20081;-65
2021/11/02 19:29:12;;;;;;;10.27;6.05;;;;;;;;;;4371807;32;20140;-65
2021/11/02 19:31:39;;;;;;;8.77;5.72;;;;;;;;;;4371788;32;20063;-65
2021/11/02 19:34:06;;;;;;;10.45;6.22;;;;;;;;;;4391930;32;20085;-66
2021/11/02 19:36:32;;;;;;;13.15;6.53;;;;;;;;;;4366918;32;20070;-65
2021/11/02 19:38:59;;;;;;;12.35;6.82;;;;;;;;;;4379114;32;20085;-66
2021/11/02 19:41:26;;;;;;;12.23;6.82;;;;;;;;;;4378550;32;20089;-65
2021/11/02 19:43:53;;;;;;;10.38;6.12;;;;;;;;;;4392985;32;20067;-66
2021/11/02 19:46:20;;;;;;;11.02;6.37;;;;;;;;;;4366487;32;20073;-65
2021/11/02 19:48:46;;;;;;;11.30;6.22;;;;;;;;;;4366381;32;20171;-66
2021/11/02 19:51:14;;;;;;;12.70;7.22;;;;;;;;;;4379111;32;20220;-65
2021/11/02 19:53:44;;;;;;;12.30;6.28;;;;;;;;;;4378983;32;20145;-66
2021/11/02 19:56:10;;;;;;;13.23;6.55;;;;;;;;;;4379354;32;20097;-65
2021/11/02 19:58:37;;;;;;;12.20;6.57;;;;;;;;;;4391433;32;20070;-65